ChinaFixed distance
Welnig Golden Coast Run
23 Mar2025
Distance
70km
Finishers
561422 men139 women
Winning time
7:13:56h
Median pace
4.72km/h
Pace distribution
561 finishers · 4.12–9.68 km/h · mean 5.02
Every finisher ran the same 70 km course, so these paces are directly comparable.
Histogram of finisher pace. 561 finishers ranged from 4.12 to 9.68 kilometres per hour, with a mean of 5.02 and a median of 4.72. The busiest band is 4.0 to 4.5 kilometres per hour, with 220 finishers.
Results
Ranks 501–550 of 561
| Rank | Runner | Time | Pace | Cat. | Placing |
|---|---|---|---|---|---|
| 494 | Li, WeiChinaMan | 16:39:54h | 4.20 | M35 | 385th M · 74th M35 |
| 495 | Wu, Zhi-RongChinaMan | 16:40:04h | 4.20 | M40 | 386th M · 86th M40 |
| 496 | Wang, PengChinaMan | 16:40:11h | 4.20 | M35 | 387th M · 75th M35 |
| 497 | Chen, HengChinaMan | 16:40:13h | 4.20 | M23 | 388th M · 88th M23 |
| 498 | Li, Sheng-MinChinaMan | 16:40:16h | 4.20 | M55 | 389th M · 27th M55 |
| 499 | Zhang, Xing-JianChinaMan | 16:40:33h | 4.20 | M23 | 390th M · 89th M23 |
| 500 | Zhang, Qiu-YueChinaWoman | 16:40:40h | 4.20 | W23 | 117th F · 20th W23 |
| 501 | Chen, Zhi-LiangChinaMan | 16:40:55h | 4.20 | M23 | 391st M · 90th M23 |
| 502 | Zhu, Han-YuChinaWoman | 16:41:17h | 4.20 | W23 | 118th F · 21st W23 |
| 503 | Hu, Shi-JieChinaMan | 16:41:38h | 4.19 | M23 | 392nd M · 91st M23 |
| 504 | Fang, Ying-PingChinaWoman | 16:41:48h | 4.19 | W35 | 119th F · 39th W35 |
| 505 | Zhao, E-JianChinaMan | 16:42:38h | 4.19 | M35 | 393rd M · 76th M35 |
| 506 | Cen, Jin-FangChinaMan | 16:42:50h | 4.19 | M35 | 394th M · 77th M35 |
| 507 | Liu, Ze-XianChinaMan | 16:43:00h | 4.19 | M23 | 395th M · 92nd M23 |
| 508 | Jing, Zhi-FengChinaMan | 16:43:24h | 4.19 | M35 | 396th M · 78th M35 |
| 509 | Wu, Yin-YinChinaMan | 16:43:45h | 4.18 | M35 | 397th M · 79th M35 |
| 510 | Wu, GangChinaMan | 16:44:38h | 4.18 | M45 | 398th M · 56th M45 |
| 511 | Wang, Dong-JuChinaWoman | 16:45:08h | 4.18 | W45 | 120th F · 16th W45 |
| 512 | Zhang, Yan-ZeChinaWoman | 16:45:31h | 4.18 | W35 | 121st F · 40th W35 |
| 513 | Zhang, Yan-YanChinaWoman | 16:45:32h | 4.18 | W35 | 122nd F · 41st W35 |
| 514 | Li, Xiao-ZhouChinaWoman | 16:46:00h | 4.17 | W23 | 123rd F · 22nd W23 |
| 515 | Zhang, JiaoChinaWoman | 16:46:39h | 4.17 | W23 | 124th F · 23rd W23 |
| 516 | Shi, Jian-MingChinaMan | 16:47:26h | 4.17 | M60 | 399th M · 11th M60 |
| 517 | Lon, Yu-LanChinaWoman | 16:47:46h | 4.17 | W35 | 125th F · 42nd W35 |
| 518 | You, JunChinaMan | 16:47:52h | 4.17 | M35 | 400th M · 80th M35 |
| 519 | Liu, Hang-ChengChinaMan | 16:48:00h | 4.17 | M50 | 401st M · 46th M50 |
| 520 | Luo, Shan-CeChinaMan | 16:48:03h | 4.17 | M23 | 402nd M · 93rd M23 |
| 521 | Ying, WeiChinaWoman | 16:48:47h | 4.16 | W40 | 126th F · 28th W40 |
| 522 | Yan, JieChinaMan | 16:48:48h | 4.16 | M50 | 403rd M · 47th M50 |
| 523 | Wang, Hong-QingChinaMan | 16:48:52h | 4.16 | M45 | 404th M · 57th M45 |
| 524 | Tang, LiangChinaMan | 16:49:11h | 4.16 | M45 | 405th M · 58th M45 |
| 525 | Duan, Li-YuanChinaMan | 16:49:21h | 4.16 | M23 | 406th M · 94th M23 |
| 526 | Xu, JieChinaWoman | 16:49:38h | 4.16 | W45 | 127th F · 17th W45 |
| 527 | Cheng, Hong-JunChinaMan | 16:49:52h | 4.16 | M50 | 407th M · 48th M50 |
| 528 | Teng, Chun-YanChinaWoman | 16:49:56h | 4.16 | W50 | 128th F · 14th W50 |
| 530 | Wang, MinChinaWoman | 16:50:10h | 4.16 | W45 | 129th F · 18th W45 |
| 531 | Ma, Ji-HuaChinaWoman | 16:50:11h | 4.16 | W60 | 130th F · 2nd W60 |
| 532 | Wu, PengChinaMan | 16:50:17h | 4.16 | M55 | 408th M · 28th M55 |
| 533 | Li, Teng-FeiChinaMan | 16:50:47h | 4.16 | M40 | 409th M · 87th M40 |
| 534 | Pan, Li-XiaChinaWoman | 16:50:57h | 4.16 | W50 | 131st F · 15th W50 |
| 535 | Minerva, MikeChinaMan | 16:51:16h | 4.15 | M50 | 410th M · 49th M50 |
| 536 | Shen, Jing-YunChinaWoman | 16:51:18h | 4.15 | W23 | 132nd F · 24th W23 |
| 537 | Ren, Xiao-YuChinaMan | 16:51:25h | 4.15 | M23 | 411th M · 95th M23 |
| 538 | Cui, ChenChinaMan | 16:51:42h | 4.15 | M35 | 412th M · 81st M35 |
| 539 | Ge, Wen-XinChinaMan | 16:52:26h | 4.15 | M40 | 413th M · 88th M40 |
| 540 | Zhang, Peng-ShengChinaMan | 16:52:27h | 4.15 | M35 | 414th M · 82nd M35 |
| 541 | Liu, DanChinaWoman | 16:52:38h | 4.15 | W23 | 133rd F · 25th W23 |
| 542 | Zhao, Peng-FeiChinaMan | 16:53:00h | 4.15 | M35 | 415th M · 83rd M35 |
| 543 | Cai, Bin-JianChinaMan | 16:53:02h | 4.15 | M50 | 416th M · 50th M50 |
| 544 | Li, Meng-Qiu (Zuan)ChinaWoman | 16:53:11h | 4.14 | W23 | 134th F · 26th W23 |
- 494Li, WeiChinaMan385th M · 74th M35Time16:39:54hPace4.20Cat.M35
- 495Wu, Zhi-RongChinaMan386th M · 86th M40Time16:40:04hPace4.20Cat.M40
- 496Wang, PengChinaMan387th M · 75th M35Time16:40:11hPace4.20Cat.M35
- 497Chen, HengChinaMan388th M · 88th M23Time16:40:13hPace4.20Cat.M23
- 498Li, Sheng-MinChinaMan389th M · 27th M55Time16:40:16hPace4.20Cat.M55
- 499Zhang, Xing-JianChinaMan390th M · 89th M23Time16:40:33hPace4.20Cat.M23
- 500Zhang, Qiu-YueChinaWoman117th F · 20th W23Time16:40:40hPace4.20Cat.W23
- 501Chen, Zhi-LiangChinaMan391st M · 90th M23Time16:40:55hPace4.20Cat.M23
- 502Zhu, Han-YuChinaWoman118th F · 21st W23Time16:41:17hPace4.20Cat.W23
- 503Hu, Shi-JieChinaMan392nd M · 91st M23Time16:41:38hPace4.19Cat.M23
- 504Fang, Ying-PingChinaWoman119th F · 39th W35Time16:41:48hPace4.19Cat.W35
- 505Zhao, E-JianChinaMan393rd M · 76th M35Time16:42:38hPace4.19Cat.M35
- 506Cen, Jin-FangChinaMan394th M · 77th M35Time16:42:50hPace4.19Cat.M35
- 507Liu, Ze-XianChinaMan395th M · 92nd M23Time16:43:00hPace4.19Cat.M23
- 508Jing, Zhi-FengChinaMan396th M · 78th M35Time16:43:24hPace4.19Cat.M35
- 509Wu, Yin-YinChinaMan397th M · 79th M35Time16:43:45hPace4.18Cat.M35
- 510Wu, GangChinaMan398th M · 56th M45Time16:44:38hPace4.18Cat.M45
- 511Wang, Dong-JuChinaWoman120th F · 16th W45Time16:45:08hPace4.18Cat.W45
- 512Zhang, Yan-ZeChinaWoman121st F · 40th W35Time16:45:31hPace4.18Cat.W35
- 513Zhang, Yan-YanChinaWoman122nd F · 41st W35Time16:45:32hPace4.18Cat.W35
- 514Li, Xiao-ZhouChinaWoman123rd F · 22nd W23Time16:46:00hPace4.17Cat.W23
- 515Zhang, JiaoChinaWoman124th F · 23rd W23Time16:46:39hPace4.17Cat.W23
- 516Shi, Jian-MingChinaMan399th M · 11th M60Time16:47:26hPace4.17Cat.M60
- 517Lon, Yu-LanChinaWoman125th F · 42nd W35Time16:47:46hPace4.17Cat.W35
- 518You, JunChinaMan400th M · 80th M35Time16:47:52hPace4.17Cat.M35
- 519Liu, Hang-ChengChinaMan401st M · 46th M50Time16:48:00hPace4.17Cat.M50
- 520Luo, Shan-CeChinaMan402nd M · 93rd M23Time16:48:03hPace4.17Cat.M23
- 521Ying, WeiChinaWoman126th F · 28th W40Time16:48:47hPace4.16Cat.W40
- 522Yan, JieChinaMan403rd M · 47th M50Time16:48:48hPace4.16Cat.M50
- 523Wang, Hong-QingChinaMan404th M · 57th M45Time16:48:52hPace4.16Cat.M45
- 524Tang, LiangChinaMan405th M · 58th M45Time16:49:11hPace4.16Cat.M45
- 525Duan, Li-YuanChinaMan406th M · 94th M23Time16:49:21hPace4.16Cat.M23
- 526Xu, JieChinaWoman127th F · 17th W45Time16:49:38hPace4.16Cat.W45
- 527Cheng, Hong-JunChinaMan407th M · 48th M50Time16:49:52hPace4.16Cat.M50
- 528Teng, Chun-YanChinaWoman128th F · 14th W50Time16:49:56hPace4.16Cat.W50
- 530Wang, MinChinaWoman129th F · 18th W45Time16:50:10hPace4.16Cat.W45
- 531Ma, Ji-HuaChinaWoman130th F · 2nd W60Time16:50:11hPace4.16Cat.W60
- 532Wu, PengChinaMan408th M · 28th M55Time16:50:17hPace4.16Cat.M55
- 533Li, Teng-FeiChinaMan409th M · 87th M40Time16:50:47hPace4.16Cat.M40
- 534Pan, Li-XiaChinaWoman131st F · 15th W50Time16:50:57hPace4.16Cat.W50
- 535Minerva, MikeChinaMan410th M · 49th M50Time16:51:16hPace4.15Cat.M50
- 536Shen, Jing-YunChinaWoman132nd F · 24th W23Time16:51:18hPace4.15Cat.W23
- 537Ren, Xiao-YuChinaMan411th M · 95th M23Time16:51:25hPace4.15Cat.M23
- 538Cui, ChenChinaMan412th M · 81st M35Time16:51:42hPace4.15Cat.M35
- 539Ge, Wen-XinChinaMan413th M · 88th M40Time16:52:26hPace4.15Cat.M40
- 540Zhang, Peng-ShengChinaMan414th M · 82nd M35Time16:52:27hPace4.15Cat.M35
- 541Liu, DanChinaWoman133rd F · 25th W23Time16:52:38hPace4.15Cat.W23
- 542Zhao, Peng-FeiChinaMan415th M · 83rd M35Time16:53:00hPace4.15Cat.M35
- 543Cai, Bin-JianChinaMan416th M · 50th M50Time16:53:02hPace4.15Cat.M50
- 544Li, Meng-Qiu (Zuan)ChinaWoman134th F · 26th W23Time16:53:11hPace4.14Cat.W23
Showing ranks 501–550 of 561